Time,TemperatureF,DewpointF,PressureIn,WindDirection,WindDirectionDegrees,WindSpeedMPH,WindSpeedGustMPH,Humidity,HourlyPrecipIn,Conditions,Clouds,dailyrainin,SolarRadiationWatts/m^2,SoftwareType,DateUTC
2013-03-28 12:52:00,59.0,14.0,-100.00,WSW,247,6.0,12.0,17,-99.99,,,0.00,840.000000,,2013-03-28 18:52:00,
2013-03-28 13:22:00,59.0,13.0,-100.00,SW,234,5.0,13.0,16,0.00,,,0.00,778.000000,,2013-03-28 19:22:00,
2013-03-28 13:32:00,59.0,13.0,-100.00,SW,234,5.0,13.0,16,0.00,,,0.00,778.000000,,2013-03-28 19:32:00,
2013-03-28 13:42:00,59.0,13.0,-100.00,SW,234,5.0,13.0,16,0.00,,,0.00,778.000000,,2013-03-28 19:42:00,
2013-03-28 13:52:00,59.0,13.0,-100.00,SW,234,5.0,13.0,16,0.00,,,0.00,778.000000,,2013-03-28 19:52:00,
2013-03-28 14:22:00,59.0,11.0,-100.00,SW,236,5.0,13.0,15,0.00,,,0.00,913.000000,,2013-03-28 20:22:00,
2013-03-28 14:32:00,59.0,11.0,-100.00,SW,236,5.0,13.0,15,0.00,,,0.00,913.000000,,2013-03-28 20:32:00,
2013-03-28 14:42:00,59.0,11.0,-100.00,SW,236,5.0,13.0,15,0.00,,,0.00,913.000000,,2013-03-28 20:42:00,
2013-03-28 14:52:00,59.0,11.0,-100.00,SW,236,5.0,13.0,15,0.00,,,0.00,913.000000,,2013-03-28 20:52:00,
2013-03-28 15:22:00,61.0,11.0,-100.00,West,268,5.0,17.0,14,0.00,,,0.00,796.000000,,2013-03-28 21:22:00,
2013-03-28 15:32:00,61.0,11.0,-100.00,West,268,5.0,17.0,14,0.00,,,0.00,796.000000,,2013-03-28 21:32:00,
2013-03-28 15:42:00,61.0,11.0,-100.00,West,268,5.0,17.0,14,0.00,,,0.00,796.000000,,2013-03-28 21:42:00,
2013-03-28 15:52:00,61.0,11.0,-100.00,West,268,5.0,17.0,14,0.00,,,0.00,796.000000,,2013-03-28 21:52:00,
2013-03-28 16:22:00,58.0,11.0,-100.00,WSW,252,5.0,14.0,15,0.00,,,0.00,714.000000,,2013-03-28 22:22:00,
2013-03-28 16:32:00,58.0,11.0,-100.00,WSW,252,5.0,14.0,15,0.00,,,0.00,714.000000,,2013-03-28 22:32:00,
2013-03-28 16:42:00,58.0,11.0,-100.00,WSW,252,5.0,14.0,15,0.00,,,0.00,714.000000,,2013-03-28 22:42:00,
2013-03-28 16:52:00,58.0,11.0,-100.00,WSW,252,5.0,14.0,15,0.00,,,0.00,714.000000,,2013-03-28 22:52:00,
2013-03-28 17:22:00,57.0,11.0,-100.00,WSW,258,6.0,15.0,16,0.00,,,0.00,513.000000,,2013-03-28 23:22:00,
2013-03-28 17:32:00,57.0,11.0,-100.00,WSW,258,6.0,15.0,16,0.00,,,0.00,513.000000,,2013-03-28 23:32:00,
2013-03-28 17:42:00,57.0,11.0,-100.00,WSW,258,6.0,15.0,16,0.00,,,0.00,513.000000,,2013-03-28 23:42:00,
2013-03-28 17:52:00,57.0,11.0,-100.00,WSW,258,6.0,15.0,16,0.00,,,0.00,513.000000,,2013-03-28 23:52:00,
2013-03-28 18:22:00,53.0,12.0,-100.00,WSW,257,5.0,13.0,19,0.00,,,0.00,258.000000,,2013-03-29 00:22:00,
2013-03-28 18:32:00,53.0,12.0,-100.00,WSW,257,5.0,13.0,19,0.00,,,0.00,258.000000,,2013-03-29 00:32:00,
2013-03-28 18:42:00,53.0,12.0,-100.00,WSW,257,5.0,13.0,19,0.00,,,0.00,258.000000,,2013-03-29 00:42:00,
2013-03-28 18:52:00,53.0,12.0,-100.00,WSW,257,5.0,13.0,19,0.00,,,0.00,258.000000,,2013-03-29 00:52:00,
2013-03-28 19:22:00,49.0,13.0,-100.00,SW,217,2.0,12.0,23,0.00,,,-99.99,99.000000,,2013-03-29 01:22:00,
2013-03-28 19:32:00,49.0,13.0,-100.00,SW,217,2.0,12.0,23,0.00,,,-99.99,99.000000,,2013-03-29 01:32:00,
2013-03-28 19:42:00,49.0,13.0,-100.00,SW,217,2.0,12.0,23,0.00,,,-99.99,99.000000,,2013-03-29 01:42:00,
2013-03-28 19:52:00,49.0,13.0,-100.00,SW,217,2.0,12.0,23,0.00,,,-99.99,99.000000,,2013-03-29 01:52:00,
2013-03-28 20:22:00,47.0,13.0,-100.00,SSW,203,2.0,7.0,25,0.00,,,-99.99,11.000000,,2013-03-29 02:22:00,
2013-03-28 20:32:00,47.0,13.0,-100.00,SSW,203,2.0,7.0,25,0.00,,,-99.99,11.000000,,2013-03-29 02:32:00,
2013-03-28 20:42:00,47.0,13.0,-100.00,SSW,203,2.0,7.0,25,0.00,,,-99.99,11.000000,,2013-03-29 02:42:00,
2013-03-28 20:52:00,47.0,13.0,-100.00,SSW,203,2.0,7.0,25,0.00,,,-99.99,11.000000,,2013-03-29 02:52:00,
2013-03-28 21:21:00,43.0,12.0,-100.00,SE,136,1.0,5.0,28,0.00,,,-99.99,1.000000,,2013-03-29 03:21:00,
2013-03-28 21:32:00,43.0,12.0,-100.00,SE,136,1.0,5.0,28,0.00,,,-99.99,1.000000,,2013-03-29 03:32:00,
2013-03-28 21:42:00,43.0,12.0,-100.00,SE,136,1.0,5.0,28,0.00,,,-99.99,1.000000,,2013-03-29 03:42:00,
2013-03-28 21:52:00,43.0,12.0,-100.00,SE,136,1.0,5.0,28,0.00,,,-99.99,1.000000,,2013-03-29 03:52:00,
2013-03-28 22:22:00,41.0,13.0,-100.00,South,176,2.0,5.0,31,0.00,,,-99.99,1.000000,,2013-03-29 04:22:00,
2013-03-28 22:33:00,41.0,13.0,-100.00,South,176,2.0,5.0,31,0.00,,,-99.99,1.000000,,2013-03-29 04:33:00,
2013-03-28 22:42:00,41.0,13.0,-100.00,South,176,2.0,5.0,31,0.00,,,-99.99,1.000000,,2013-03-29 04:42:00,
2013-03-28 22:52:00,41.0,13.0,-100.00,South,176,2.0,5.0,31,0.00,,,-99.99,1.000000,,2013-03-29 04:52:00,
2013-03-28 23:23:00,40.0,11.0,-100.00,ESE,109,1.0,4.0,30,0.00,,,-99.99,1.000000,,2013-03-29 05:23:00,
2013-03-28 23:32:00,40.0,11.0,-100.00,ESE,109,1.0,4.0,30,0.00,,,-99.99,1.000000,,2013-03-29 05:32:00,
2013-03-28 23:43:00,40.0,11.0,-100.00,ESE,109,1.0,4.0,30,0.00,,,-99.99,1.000000,,2013-03-29 05:43:00,
2013-03-28 23:52:00,40.0,11.0,-100.00,ESE,109,1.0,4.0,30,0.00,,,-99.99,1.000000,,2013-03-29 05:52:00,